Time;durP1;ratioP1;P1;durP2;ratioP2;P2;SDS_P1;SDS_P2;PMS_P1;PMS_P2;Temp;Humidity;BMP_temperature;BMP_pressure;BME280_temperature;BME280_humidity;BME280_pressure;Samples;Min_cycle;Max_cycle;Signal;HPM_P1;HPM_P2
2021/11/27 00:00:51;;;;;;;28.27;5.55;;;16.20;99.90;;;;;;5045940;28;20061;-63
2021/11/27 00:03:19;;;;;;;31.80;4.85;;;16.30;99.90;;;;;;5046269;28;20081;-63
2021/11/27 00:05:48;;;;;;;22.10;5.05;;;16.30;99.90;;;;;;5044641;28;20029;-63
2021/11/27 00:08:18;;;;;;;23.30;4.22;;;16.30;99.90;;;;;;5063443;28;20021;-63
2021/11/27 00:10:53;;;;;;;30.40;5.75;;;16.40;99.90;;;;;;5065289;28;20017;-63
2021/11/27 00:13:22;;;;;;;33.70;5.47;;;16.50;99.90;;;;;;5047401;28;20021;-63
2021/11/27 00:15:51;;;;;;;25.70;5.45;;;16.50;99.90;;;;;;5052726;28;20065;-63
2021/11/27 00:18:21;;;;;;;23.83;4.35;;;16.40;99.90;;;;;;5049064;28;20022;-63
2021/11/27 00:21:02;;;;;;;20.50;2.97;;;16.50;99.90;;;;;;5050531;28;20022;-63
2021/11/27 00:23:30;;;;;;;25.55;5.07;;;16.60;99.90;;;;;;5033354;28;20601;-63
2021/11/27 00:25:59;;;;;;;25.17;4.78;;;16.70;99.90;;;;;;5041419;28;20583;-63
2021/11/27 00:28:26;;;;;;;26.60;4.22;;;16.80;99.90;;;;;;5046595;28;20079;-63
2021/11/27 00:30:58;;;;;;;18.17;3.42;;;16.80;99.90;;;;;;5050586;28;20052;-63
2021/11/27 00:33:26;;;;;;;27.83;4.93;;;16.90;99.90;;;;;;5064957;28;20025;-63
2021/11/27 00:35:53;;;;;;;21.15;3.42;;;16.90;99.90;;;;;;5067828;28;20041;-63
2021/11/27 00:38:21;;;;;;;28.25;4.15;;;16.80;99.90;;;;;;5066489;28;20085;-63
2021/11/27 00:40:48;;;;;;;26.63;5.18;;;16.90;99.90;;;;;;5069584;28;20064;-63
2021/11/27 00:43:16;;;;;;;25.58;3.90;;;16.90;99.90;;;;;;5067834;28;20017;-63
2021/11/27 00:45:45;;;;;;;24.38;5.53;;;16.90;99.90;;;;;;5069400;28;20048;-63
2021/11/27 00:48:14;;;;;;;24.75;4.43;;;16.90;99.90;;;;;;5052357;28;20017;-63
2021/11/27 00:50:46;;;;;;;25.92;4.40;;;17.00;99.90;;;;;;5050602;28;20030;-63
2021/11/27 00:53:14;;;;;;;26.77;4.43;;;17.20;99.90;;;;;;5061735;28;20049;-64
2021/11/27 00:55:42;;;;;;;14.27;3.38;;;17.10;99.90;;;;;;5067877;28;20021;-63
2021/11/27 00:58:10;;;;;;;22.23;4.35;;;16.90;99.90;;;;;;5053420;28;20047;-64
2021/11/27 01:00:45;;;;;;;24.23;4.53;;;16.70;99.90;;;;;;5046866;28;20021;-63
2021/11/27 01:03:14;;;;;;;22.02;4.88;;;16.40;99.90;;;;;;5062972;28;20040;-63
2021/11/27 01:05:43;;;;;;;17.98;3.75;;;16.50;99.90;;;;;;5048308;28;20025;-63
2021/11/27 01:08:11;;;;;;;17.80;3.72;;;16.50;99.90;;;;;;5037801;28;20551;-63
2021/11/27 01:11:16;;;;;;;15.63;3.22;;;16.70;99.90;;;;;;5045415;28;20029;-63
2021/11/27 01:13:46;;;;;;;17.55;4.00;;;16.80;99.90;;;;;;5025716;28;20049;-63
2021/11/27 01:16:15;;;;;;;14.70;3.33;;;17.10;99.90;;;;;;5027958;28;20030;-63
2021/11/27 01:18:43;;;;;;;13.85;2.88;;;17.00;99.90;;;;;;5025579;28;20022;-63
2021/11/27 01:21:14;;;;;;;13.27;2.58;;;17.10;99.90;;;;;;5033037;28;20018;-63
2021/11/27 01:23:44;;;;;;;15.25;4.25;;;17.10;99.90;;;;;;5066944;28;20044;-63
2021/11/27 01:26:12;;;;;;;16.30;3.22;;;17.00;99.90;;;;;;5067779;28;20052;-63
2021/11/27 01:28:40;;;;;;;23.90;3.70;;;17.00;99.90;;;;;;5066491;28;20449;-63
2021/11/27 01:31:07;;;;;;;20.70;4.15;;;16.90;99.90;;;;;;5069154;28;20017;-63
2021/11/27 01:33:38;;;;;;;17.83;3.85;;;17.00;99.90;;;;;;5048868;28;20086;-64
2021/11/27 01:36:07;;;;;;;22.25;3.63;;;17.10;99.90;;;;;;5047553;28;20037;-65
2021/11/27 01:38:36;;;;;;;22.52;4.13;;;17.00;99.90;;;;;;5063539;28;20025;-65
2021/11/27 01:41:04;;;;;;;22.75;3.72;;;16.80;99.90;;;;;;5067072;28;20025;-65
2021/11/27 01:43:33;;;;;;;21.13;3.58;;;16.40;99.90;;;;;;5044147;28;20113;-65
2021/11/27 01:46:01;;;;;;;13.45;2.67;;;16.40;99.90;;;;;;5042772;28;20386;-65
2021/11/27 01:48:29;;;;;;;15.45;3.72;;;16.50;99.90;;;;;;5052337;28;20032;-65
2021/11/27 01:51:00;;;;;;;24.42;4.68;;;16.70;99.90;;;;;;5050797;28;20048;-63
2021/11/27 01:53:29;;;;;;;26.08;4.90;;;16.90;99.90;;;;;;5050069;28;20060;-63
2021/11/27 01:56:00;;;;;;;21.90;3.50;;;17.10;99.90;;;;;;5051635;28;20036;-64
2021/11/27 01:58:29;;;;;;;26.85;4.43;;;17.10;99.90;;;;;;5065197;28;20033;-64
2021/11/27 02:01:01;;;;;;;25.80;5.35;;;17.00;99.90;;;;;;5065751;28;20377;-64
2021/11/27 02:03:28;;;;;;;23.05;4.53;;;16.80;99.90;;;;;;5048860;28;20159;-64
2021/11/27 02:05:56;;;;;;;15.95;2.10;;;16.70;99.90;;;;;;5047580;28;20039;-64
2021/11/27 02:08:25;;;;;;;24.83;4.75;;;16.60;99.90;;;;;;5063719;28;20051;-63
2021/11/27 02:10:53;;;;;;;21.15;3.40;;;16.60;99.90;;;;;;5071035;28;20032;-64
2021/11/27 02:13:21;;;;;;;27.17;3.95;;;16.80;99.90;;;;;;5048846;28;20026;-63
2021/11/27 02:15:48;;;;;;;22.48;3.42;;;16.80;99.90;;;;;;5049695;28;20033;-63
2021/11/27 02:18:16;;;;;;;21.15;5.22;;;16.90;99.90;;;;;;5061537;28;20025;-64
2021/11/27 02:20:55;;;;;;;19.83;4.57;;;17.00;99.90;;;;;;5065167;28;20025;-63
2021/11/27 02:23:23;;;;;;;26.33;4.80;;;17.00;99.90;;;;;;5048066;28;20032;-64
2021/11/27 02:25:50;;;;;;;31.60;5.82;;;17.10;99.90;;;;;;5041198;28;20022;-63
2021/11/27 02:28:18;;;;;;;24.20;5.38;;;17.00;99.90;;;;;;5029359;28;20054;-64
2021/11/27 02:30:48;;;;;;;22.15;5.13;;;17.20;99.90;;;;;;5024036;28;20026;-64
2021/11/27 02:33:15;;;;;;;29.50;5.57;;;17.20;99.90;;;;;;5059513;28;20089;-64
2021/11/27 02:35:43;;;;;;;21.40;4.43;;;17.30;99.90;;;;;;5063521;28;20025;-64
2021/11/27 02:38:10;;;;;;;29.00;5.43;;;17.40;99.90;;;;;;5035374;28;20076;-65
2021/11/27 02:40:41;;;;;;;26.52;5.38;;;17.30;99.90;;;;;;5040842;28;20017;-65
2021/11/27 02:43:09;;;;;;;36.95;6.18;;;17.20;99.90;;;;;;5042108;28;20022;-64
2021/11/27 02:45:37;;;;;;;35.53;5.80;;;17.30;99.90;;;;;;5047827;28;20041;-65
2021/11/27 02:48:05;;;;;;;25.85;6.20;;;17.40;99.90;;;;;;5061962;28;20496;-65
2021/11/27 02:50:32;;;;;;;31.95;5.03;;;17.50;99.90;;;;;;5050359;28;20055;-64
2021/11/27 02:53:00;;;;;;;37.75;6.70;;;17.40;99.90;;;;;;5055425;28;20068;-64
2021/11/27 02:55:27;;;;;;;31.13;6.63;;;17.40;99.90;;;;;;5062964;28;20040;-64
2021/11/27 02:57:54;;;;;;;27.38;5.18;;;17.40;99.90;;;;;;5036595;28;20079;-64
2021/11/27 03:00:24;;;;;;;25.58;5.13;;;17.40;99.90;;;;;;5021783;28;20367;-65
2021/11/27 03:02:52;;;;;;;29.73;5.68;;;17.40;99.90;;;;;;5047060;28;20067;-64
2021/11/27 03:05:20;;;;;;;32.45;7.00;;;17.50;99.90;;;;;;5049202;28;20079;-64
2021/11/27 03:07:49;;;;;;;27.17;5.20;;;17.60;99.90;;;;;;5027720;28;20033;-65
2021/11/27 03:10:19;;;;;;;25.73;5.90;;;17.70;99.90;;;;;;5018896;28;20117;-64
2021/11/27 03:12:48;;;;;;;30.38;5.22;;;17.60;99.90;;;;;;5023056;28;20084;-64
2021/11/27 03:15:19;;;;;;;28.38;5.28;;;17.60;99.90;;;;;;5021548;28;20037;-64
2021/11/27 03:17:47;;;;;;;27.67;5.70;;;17.60;99.90;;;;;;5036074;28;20123;-64
2021/11/27 03:20:18;;;;;;;20.88;5.18;;;17.60;99.90;;;;;;5020964;28;20100;-65
2021/11/27 03:22:46;;;;;;;23.58;4.70;;;17.60;99.90;;;;;;5045571;28;20040;-65
2021/11/27 03:25:14;;;;;;;26.77;5.22;;;17.90;99.90;;;;;;5061619;28;20043;-65
2021/11/27 03:27:42;;;;;;;29.05;5.40;;;18.00;99.90;;;;;;5047319;28;20025;-64
2021/11/27 03:30:14;;;;;;;28.80;3.97;;;17.60;99.90;;;;;;5039764;28;20109;-64
2021/11/27 03:32:41;;;;;;;24.73;4.68;;;17.70;99.90;;;;;;5036034;28;20025;-64
2021/11/27 03:35:09;;;;;;;21.65;5.10;;;17.80;99.90;;;;;;5036934;28;20375;-64
2021/11/27 03:37:38;;;;;;;24.17;4.28;;;17.90;99.90;;;;;;5039325;28;20532;-65
2021/11/27 03:40:07;;;;;;;24.55;4.05;;;18.10;99.90;;;;;;5037164;28;20017;-64
2021/11/27 03:42:34;;;;;;;22.35;4.43;;;18.10;99.90;;;;;;5041229;28;20047;-66
2021/11/27 03:45:03;;;;;;;26.20;5.35;;;18.00;99.90;;;;;;5053428;28;20044;-65
2021/11/27 03:47:30;;;;;;;26.73;4.43;;;17.90;99.90;;;;;;5047995;28;20108;-64
2021/11/27 03:49:58;;;;;;;17.45;3.90;;;17.80;99.90;;;;;;5055963;28;20036;-65
2021/11/27 03:52:25;;;;;;;23.15;4.18;;;17.90;99.90;;;;;;5048382;28;20088;-64
2021/11/27 03:54:52;;;;;;;14.65;4.28;;;17.90;99.90;;;;;;5042347;28;20041;-64
2021/11/27 03:57:20;;;;;;;21.05;4.25;;;17.90;99.90;;;;;;5047937;28;20423;-64
2021/11/27 03:59:47;;;;;;;24.73;4.65;;;18.00;99.90;;;;;;5048710;28;20017;-64
2021/11/27 04:02:15;;;;;;;19.75;4.40;;;17.90;99.90;;;;;;5043993;28;20386;-64
2021/11/27 04:04:42;;;;;;;22.85;5.10;;;17.90;99.90;;;;;;5048675;28;20037;-63
2021/11/27 04:07:10;;;;;;;17.70;4.32;;;17.90;99.90;;;;;;5048984;28;20021;-64
2021/11/27 04:09:38;;;;;;;25.17;4.78;;;17.90;99.90;;;;;;5058605;28;20385;-64
2021/11/27 04:12:06;;;;;;;29.23;5.13;;;17.90;99.90;;;;;;5057242;28;20155;-64
2021/11/27 04:14:33;;;;;;;28.27;5.10;;;18.00;99.90;;;;;;5051166;28;20030;-65
2021/11/27 04:17:00;;;;;;;22.10;4.20;;;18.00;99.90;;;;;;5049825;28;20025;-64
2021/11/27 04:19:27;;;;;;;22.00;4.80;;;18.00;99.90;;;;;;5057951;28;20067;-65
2021/11/27 04:21:55;;;;;;;36.47;6.05;;;18.10;99.90;;;;;;5035758;28;20022;-65
2021/11/27 04:24:23;;;;;;;22.73;4.13;;;18.00;99.90;;;;;;5050012;28;20087;-65
2021/11/27 04:26:50;;;;;;;28.52;5.05;;;18.00;99.90;;;;;;5038919;28;20029;-65
2021/11/27 04:29:17;;;;;;;21.30;4.78;;;18.00;99.90;;;;;;5052151;28;20493;-64
2021/11/27 04:31:45;;;;;;;22.00;3.65;;;18.00;99.90;;;;;;5055869;28;20033;-64
2021/11/27 04:34:12;;;;;;;28.58;5.35;;;18.00;99.90;;;;;;5044714;28;20053;-64
2021/11/27 04:36:40;;;;;;;22.13;3.97;;;18.00;99.90;;;;;;5042986;28;20061;-65
2021/11/27 04:39:07;;;;;;;22.75;4.35;;;17.90;99.90;;;;;;5059352;28;20033;-65
2021/11/27 04:41:34;;;;;;;17.55;3.50;;;17.90;99.90;;;;;;5042102;28;20052;-64
2021/11/27 04:44:01;;;;;;;28.25;4.63;;;17.80;99.90;;;;;;5044006;28;20026;-64
2021/11/27 04:46:29;;;;;;;16.40;3.28;;;17.90;99.90;;;;;;5043654;28;20088;-65
2021/11/27 04:48:56;;;;;;;24.08;4.30;;;17.90;99.90;;;;;;5051493;28;20025;-64
2021/11/27 04:51:23;;;;;;;20.83;3.63;;;18.10;99.90;;;;;;5045421;28;20056;-64
2021/11/27 04:53:51;;;;;;;19.63;4.13;;;18.00;99.90;;;;;;5063225;28;20040;-64
2021/11/27 04:56:18;;;;;;;17.30;2.90;;;18.10;99.90;;;;;;5071600;28;20037;-65
2021/11/27 04:58:45;;;;;;;17.73;3.92;;;18.00;99.90;;;;;;5050507;28;20018;-65
2021/11/27 05:01:13;;;;;;;22.65;3.75;;;17.90;99.90;;;;;;5046415;28;20029;-64
2021/11/27 05:03:40;;;;;;;22.67;5.07;;;17.70;99.90;;;;;;5042907;28;20079;-64
2021/11/27 05:06:07;;;;;;;21.60;3.95;;;17.60;99.90;;;;;;5047063;28;20030;-66
2021/11/27 05:08:35;;;;;;;24.23;4.13;;;17.50;99.90;;;;;;5045016;28;20026;-66
2021/11/27 05:11:02;;;;;;;20.95;3.83;;;17.60;99.90;;;;;;5046841;28;20021;-66
2021/11/27 05:13:29;;;;;;;19.17;4.10;;;17.70;99.90;;;;;;5047181;28;20029;-66
2021/11/27 05:15:57;;;;;;;23.25;4.55;;;17.50;99.90;;;;;;5052252;28;20030;-66
2021/11/27 05:18:24;;;;;;;31.25;4.82;;;17.40;99.90;;;;;;5046889;28;20034;-65
2021/11/27 05:20:51;;;;;;;22.23;3.75;;;17.30;99.90;;;;;;5034069;28;20044;-64
2021/11/27 05:23:18;;;;;;;27.48;5.05;;;17.20;99.90;;;;;;5043934;28;20060;-65
2021/11/27 05:25:46;;;;;;;34.10;5.28;;;17.30;99.90;;;;;;5042492;28;20508;-65
2021/11/27 05:28:13;;;;;;;22.42;4.38;;;17.40;99.90;;;;;;5038462;28;20033;-65
2021/11/27 05:30:40;;;;;;;23.02;4.85;;;17.30;99.90;;;;;;5040827;28;20026;-65
2021/11/27 05:33:11;;;;;;;21.75;3.58;;;17.30;99.90;;;;;;5056057;28;20070;-64
2021/11/27 05:35:39;;;;;;;28.10;5.10;;;17.30;99.90;;;;;;5045669;28;20032;-66
2021/11/27 05:38:07;;;;;;;25.35;5.15;;;17.20;99.90;;;;;;5046384;28;20497;-65
2021/11/27 05:40:35;;;;;;;24.90;4.22;;;17.10;99.90;;;;;;5038825;28;20037;-65
2021/11/27 05:43:04;;;;;;;28.75;4.40;;;17.10;99.90;;;;;;5047665;28;20026;-65
2021/11/27 05:45:31;;;;;;;28.50;5.15;;;17.20;99.90;;;;;;5045586;28;20042;-65
2021/11/27 05:48:01;;;;;;;18.02;3.60;;;17.20;99.90;;;;;;5039310;28;20021;-65
2021/11/27 05:50:30;;;;;;;23.02;4.68;;;17.20;99.90;;;;;;5043431;28;20029;-65
2021/11/27 05:52:58;;;;;;;26.75;3.95;;;17.40;99.90;;;;;;5061889;28;20473;-64
2021/11/27 05:55:25;;;;;;;19.50;4.78;;;17.40;99.90;;;;;;5040983;28;20033;-65
2021/11/27 05:57:52;;;;;;;18.38;2.50;;;17.30;99.90;;;;;;5040985;28;20041;-65
2021/11/27 06:00:19;;;;;;;24.10;4.65;;;17.40;99.90;;;;;;5040928;28;20022;-65
2021/11/27 06:02:47;;;;;;;19.05;4.10;;;17.20;99.90;;;;;;5041802;28;20036;-65
2021/11/27 06:05:15;;;;;;;17.30;4.03;;;17.20;99.90;;;;;;5041233;28;20088;-65
2021/11/27 06:07:42;;;;;;;20.92;4.68;;;17.10;99.90;;;;;;5037270;28;20116;-65
2021/11/27 06:10:10;;;;;;;18.85;3.30;;;17.10;99.90;;;;;;5041602;28;20037;-65
2021/11/27 06:12:37;;;;;;;18.58;2.92;;;17.20;99.90;;;;;;5040071;28;20021;-65
2021/11/27 06:15:05;;;;;;;23.17;4.00;;;17.10;99.90;;;;;;5048527;28;20049;-64
2021/11/27 06:17:32;;;;;;;18.27;3.53;;;17.20;99.90;;;;;;5052368;28;20097;-65
2021/11/27 06:20:00;;;;;;;25.90;5.70;;;17.20;99.90;;;;;;5047006;28;20025;-64
2021/11/27 06:22:27;;;;;;;22.23;3.92;;;17.10;99.90;;;;;;5045363;28;20026;-68
2021/11/27 06:24:54;;;;;;;16.17;3.30;;;17.10;99.90;;;;;;5040461;28;20382;-67
2021/11/27 06:27:22;;;;;;;17.05;4.28;;;17.00;99.90;;;;;;5040450;28;20041;-68
2021/11/27 06:29:50;;;;;;;25.10;4.20;;;16.90;99.90;;;;;;5049122;28;20029;-67
2021/11/27 06:32:22;;;;;;;16.55;3.63;;;16.80;99.90;;;;;;5041499;28;20013;-68
2021/11/27 06:34:52;;;;;;;18.83;2.47;;;16.80;99.90;;;;;;5043087;28;20562;-68
2021/11/27 06:37:20;;;;;;;12.63;2.42;;;16.90;99.90;;;;;;5055889;28;20090;-67
2021/11/27 06:39:48;;;;;;;13.95;2.35;;;17.00;99.90;;;;;;5060228;28;20032;-67
2021/11/27 06:42:16;;;;;;;14.27;4.13;;;17.10;99.90;;;;;;5049904;28;20014;-69
2021/11/27 06:44:47;;;;;;;18.33;3.40;;;17.10;99.90;;;;;;5068609;28;20029;-67
2021/11/27 06:47:16;;;;;;;16.80;2.85;;;17.20;99.90;;;;;;5049772;28;20057;-67
2021/11/27 06:49:45;;;;;;;17.35;3.13;;;17.10;99.90;;;;;;5045627;28;20026;-68
2021/11/27 06:52:13;;;;;;;19.25;3.88;;;17.10;99.90;;;;;;5050488;28;20506;-67
2021/11/27 06:54:40;;;;;;;16.55;3.08;;;17.10;99.90;;;;;;5059683;28;20029;-68
2021/11/27 06:57:09;;;;;;;20.90;3.22;;;17.00;99.90;;;;;;5047509;28;20550;-67
2021/11/27 06:59:38;;;;;;;22.40;4.40;;;17.00;99.90;;;;;;5045402;28;20033;-68
2021/11/27 07:02:06;;;;;;;18.90;5.22;;;17.00;99.90;;;;;;5046003;28;20044;-67
2021/11/27 07:04:33;;;;;;;23.80;3.72;;;17.00;99.90;;;;;;5054283;28;20001;-68
2021/11/27 07:07:01;;;;;;;22.08;4.13;;;17.00;99.90;;;;;;5042743;28;20116;-68
2021/11/27 07:09:28;;;;;;;23.60;4.50;;;16.90;99.90;;;;;;5043056;28;20029;-68
2021/11/27 07:11:56;;;;;;;27.60;5.13;;;16.90;99.90;;;;;;5059814;28;20013;-68
2021/11/27 07:14:23;;;;;;;15.98;3.58;;;16.90;99.90;;;;;;5055868;28;20020;-67
2021/11/27 07:16:50;;;;;;;19.85;4.55;;;17.00;99.90;;;;;;5051185;28;20033;-67
2021/11/27 07:19:17;;;;;;;21.38;4.85;;;17.00;99.90;;;;;;5049597;28;20017;-67
2021/11/27 07:21:45;;;;;;;23.58;4.20;;;16.80;99.90;;;;;;5040413;28;20389;-67
2021/11/27 07:24:12;;;;;;;17.33;3.13;;;16.80;99.90;;;;;;5060505;28;20036;-68
2021/11/27 07:26:39;;;;;;;23.10;4.30;;;16.80;99.90;;;;;;5066855;28;20021;-67
2021/11/27 07:29:07;;;;;;;21.85;3.67;;;16.80;99.90;;;;;;5064646;28;20032;-66
2021/11/27 07:31:34;;;;;;;25.33;4.57;;;16.70;99.90;;;;;;5065945;28;20073;-66
2021/11/27 07:34:02;;;;;;;26.08;4.88;;;16.70;99.90;;;;;;5055603;28;20486;-67
2021/11/27 07:36:29;;;;;;;20.92;4.03;;;16.80;99.90;;;;;;5059431;28;20072;-66
2021/11/27 07:38:57;;;;;;;18.92;4.40;;;16.70;99.90;;;;;;5054501;28;20029;-67
2021/11/27 07:41:24;;;;;;;20.60;3.47;;;16.70;99.90;;;;;;5057186;28;20430;-66
2021/11/27 07:43:51;;;;;;;18.52;3.75;;;16.30;99.90;;;;;;5047792;28;20025;-66
2021/11/27 07:46:19;;;;;;;17.88;3.42;;;16.10;99.90;;;;;;5051999;28;20049;-67
2021/11/27 07:48:46;;;;;;;14.27;3.20;;;16.00;99.90;;;;;;5060629;28;20062;-66
2021/11/27 07:51:13;;;;;;;12.32;2.40;;;16.00;99.90;;;;;;5050172;28;20006;-67
2021/11/27 07:53:44;;;;;;;16.60;3.00;;;16.10;99.90;;;;;;5067716;28;20025;-66
2021/11/27 07:56:12;;;;;;;20.65;4.10;;;16.10;99.90;;;;;;5053401;28;20440;-66
2021/11/27 07:58:39;;;;;;;14.18;2.70;;;16.10;99.90;;;;;;5054777;28;20014;-65
2021/11/27 08:01:07;;;;;;;18.00;3.15;;;16.10;99.90;;;;;;5045534;28;20109;-65
2021/11/27 08:03:35;;;;;;;16.67;3.50;;;16.20;99.90;;;;;;5039118;28;20044;-65
2021/11/27 08:06:02;;;;;;;23.65;5.40;;;16.20;99.90;;;;;;5061824;28;20017;-65
2021/11/27 08:08:29;;;;;;;26.63;3.72;;;16.20;99.90;;;;;;5048185;28;20045;-65
2021/11/27 08:10:57;;;;;;;19.67;2.97;;;16.20;99.90;;;;;;5057310;28;20051;-65
2021/11/27 08:13:24;;;;;;;17.75;3.00;;;16.20;99.90;;;;;;5061647;28;20048;-66
2021/11/27 08:15:52;;;;;;;17.65;4.30;;;16.10;99.90;;;;;;5053549;28;20025;-65
2021/11/27 08:18:19;;;;;;;23.92;4.20;;;16.10;99.90;;;;;;5026954;28;20029;-65
2021/11/27 08:20:52;;;;;;;19.92;3.83;;;16.10;99.90;;;;;;5045485;28;20018;-65
2021/11/27 08:23:20;;;;;;;19.05;4.88;;;16.10;99.90;;;;;;5060243;28;20095;-65
2021/11/27 08:25:47;;;;;;;17.65;3.15;;;16.10;99.90;;;;;;5045798;28;20028;-65
2021/11/27 08:28:15;;;;;;;21.25;3.10;;;16.10;99.90;;;;;;5055960;28;20026;-65
2021/11/27 08:30:42;;;;;;;16.85;3.95;;;16.10;99.90;;;;;;5044895;28;20022;-66
2021/11/27 08:33:09;;;;;;;19.10;4.43;;;16.20;99.90;;;;;;5041392;28;20076;-66
2021/11/27 08:35:37;;;;;;;17.05;2.88;;;16.20;99.90;;;;;;5054242;28;20009;-66
2021/11/27 08:38:04;;;;;;;22.52;2.83;;;16.20;99.90;;;;;;5071118;28;20044;-66
2021/11/27 08:40:31;;;;;;;14.85;3.17;;;16.20;99.90;;;;;;5060809;28;20425;-66
2021/11/27 08:42:59;;;;;;;11.45;3.03;;;16.20;99.90;;;;;;5055401;28;20032;-66
2021/11/27 08:45:27;;;;;;;17.67;2.33;;;16.20;99.90;;;;;;5058665;28;20055;-66
2021/11/27 08:47:55;;;;;;;19.65;3.50;;;16.20;99.90;;;;;;5048770;28;20005;-65
2021/11/27 08:50:22;;;;;;;16.58;3.28;;;16.20;99.90;;;;;;5047740;28;20037;-66
2021/11/27 08:52:50;;;;;;;22.42;3.38;;;16.20;99.90;;;;;;5061164;28;20029;-65
2021/11/27 08:55:17;;;;;;;15.07;3.25;;;16.20;99.90;;;;;;5068591;28;20044;-66
2021/11/27 08:57:44;;;;;;;21.58;3.72;;;16.30;99.90;;;;;;5058549;28;20025;-65
2021/11/27 09:00:12;;;;;;;17.83;3.22;;;16.20;99.90;;;;;;5057023;28;20017;-65
2021/11/27 09:02:40;;;;;;;19.13;3.67;;;16.30;99.90;;;;;;5062228;28;20029;-65
2021/11/27 09:05:09;;;;;;;18.42;3.58;;;16.30;99.90;;;;;;5056437;28;20048;-66
2021/11/27 09:07:36;;;;;;;14.50;2.90;;;16.30;99.90;;;;;;5059115;28;20033;-66
2021/11/27 09:10:05;;;;;;;17.42;3.33;;;16.30;99.90;;;;;;5044531;28;20374;-66
2021/11/27 09:12:32;;;;;;;24.60;4.20;;;16.30;99.90;;;;;;5044854;28;20084;-65
2021/11/27 09:15:00;;;;;;;26.02;4.25;;;16.20;99.90;;;;;;5043218;28;20042;-65
2021/11/27 09:17:27;;;;;;;23.00;3.55;;;16.20;99.90;;;;;;5044755;28;20026;-66
2021/11/27 09:19:54;;;;;;;19.98;3.70;;;16.10;99.90;;;;;;5063508;28;20056;-65
2021/11/27 09:22:22;;;;;;;20.83;4.95;;;16.10;99.90;;;;;;5062155;28;20056;-66
2021/11/27 09:24:49;;;;;;;15.77;2.70;;;16.00;99.90;;;;;;5054626;28;20037;-66
2021/11/27 09:27:16;;;;;;;17.35;3.10;;;16.00;99.90;;;;;;5048594;28;20048;-65
2021/11/27 09:29:44;;;;;;;15.20;3.60;;;16.00;99.90;;;;;;5062596;28;20018;-65
2021/11/27 09:32:11;;;;;;;19.10;3.22;;;15.90;99.90;;;;;;5033797;28;20532;-68
2021/11/27 09:34:39;;;;;;;17.77;2.60;;;15.90;99.90;;;;;;5047002;28;20036;-65
2021/11/27 09:37:11;;;;;;;17.73;3.22;;;15.90;99.90;;;;;;5043656;28;20132;-66
2021/11/27 09:39:40;;;;;;;18.85;3.67;;;15.90;99.90;;;;;;5043089;28;20021;-66
2021/11/27 09:42:08;;;;;;;17.40;2.47;;;15.90;99.90;;;;;;5050344;28;20112;-66
2021/11/27 09:44:36;;;;;;;22.15;4.07;;;15.90;99.90;;;;;;5060441;28;20033;-66
2021/11/27 09:47:08;;;;;;;16.52;4.80;;;15.90;99.90;;;;;;5072344;28;20120;-66
2021/11/27 09:49:37;;;;;;;24.73;4.93;;;16.00;99.90;;;;;;5060845;28;20057;-66
2021/11/27 09:52:04;;;;;;;24.10;3.78;;;16.00;99.90;;;;;;5060357;28;20026;-66
2021/11/27 09:54:32;;;;;;;27.20;6.03;;;16.00;99.90;;;;;;5060305;28;20028;-66
2021/11/27 09:56:59;;;;;;;20.10;4.15;;;16.00;99.90;;;;;;5048341;28;20032;-66
2021/11/27 09:59:26;;;;;;;27.10;4.45;;;16.10;99.90;;;;;;5059622;28;20017;-65
2021/11/27 10:01:55;;;;;;;16.95;2.70;;;16.10;99.90;;;;;;5065897;28;20052;-65
2021/11/27 10:04:25;;;;;;;16.55;3.13;;;16.10;99.90;;;;;;5043471;28;20080;-65
2021/11/27 10:06:52;;;;;;;20.63;2.85;;;16.10;99.90;;;;;;5046272;28;20028;-65
2021/11/27 10:09:23;;;;;;;21.40;4.13;;;16.10;99.90;;;;;;5067798;28;20125;-65
2021/11/27 10:11:52;;;;;;;19.83;3.40;;;16.20;99.90;;;;;;5065881;28;20009;-65
2021/11/27 10:14:21;;;;;;;22.75;3.13;;;16.20;99.90;;;;;;5071828;28;20044;-65
2021/11/27 10:17:02;;;;;;;16.33;3.40;;;16.20;99.90;;;;;;5066261;28;20512;-65
2021/11/27 10:19:43;;;;;;;25.23;3.28;;;16.10;99.90;;;;;;5053946;28;20375;-65
2021/11/27 10:22:13;;;;;;;17.92;2.88;;;16.00;99.90;;;;;;5035585;28;20045;-66
2021/11/27 10:24:43;;;;;;;22.50;4.30;;;16.00;99.90;;;;;;5057649;28;20044;-66
2021/11/27 10:27:30;;;;;;;19.75;3.90;;;16.00;99.90;;;;;;5058549;28;20030;-66
2021/11/27 10:30:10;;;;;;;23.15;3.67;;;15.90;99.90;;;;;;5048715;28;20014;-66
2021/11/27 10:32:40;;;;;;;23.30;3.30;;;15.90;99.90;;;;;;5055171;28;20037;-65
2021/11/27 10:35:20;;;;;;;25.05;3.92;;;15.90;99.90;;;;;;5058955;28;20041;-65
2021/11/27 10:37:55;;;;;;;22.48;3.92;;;15.90;99.90;;;;;;5029511;28;20029;-66
2021/11/27 10:40:24;;;;;;;22.45;3.55;;;15.90;99.90;;;;;;5034715;28;20039;-66
2021/11/27 10:42:54;;;;;;;24.08;3.72;;;15.90;99.90;;;;;;5052603;28;20025;-66
2021/11/27 10:45:25;;;;;;;22.15;3.65;;;15.90;99.90;;;;;;5049610;28;20049;-66
2021/11/27 10:48:07;;;;;;;20.52;3.75;;;15.90;99.90;;;;;;5050833;28;20010;-66
2021/11/27 10:50:39;;;;;;;20.77;4.03;;;16.00;99.90;;;;;;5051598;28;20485;-66
2021/11/27 10:53:12;;;;;;;30.08;5.72;;;15.90;99.90;;;;;;5054331;28;20034;-66
2021/11/27 10:55:40;;;;;;;28.23;4.32;;;16.00;99.90;;;;;;5052638;28;20025;-66
2021/11/27 10:58:09;;;;;;;24.13;4.20;;;16.00;99.90;;;;;;5049617;28;20068;-66
2021/11/27 11:00:43;;;;;;;18.48;3.38;;;16.00;99.90;;;;;;5066283;28;20043;-66
2021/11/27 11:03:33;;;;;;;20.98;3.50;;;16.00;99.90;;;;;;5061960;28;20006;-66
2021/11/27 11:06:17;;;;;;;24.67;4.38;;;15.90;99.90;;;;;;5054282;28;20044;-66
2021/11/27 11:08:46;;;;;;;23.30;5.10;;;15.80;99.90;;;;;;5072501;28;20064;-66
2021/11/27 11:11:23;;;;;;;21.65;4.13;;;15.70;99.90;;;;;;5075098;28;20029;-66
2021/11/27 11:13:54;;;;;;;27.92;4.53;;;15.70;99.90;;;;;;5066910;28;20026;-66
2021/11/27 11:16:26;;;;;;;27.83;4.13;;;15.70;99.90;;;;;;5039212;28;20050;-66
2021/11/27 11:19:16;;;;;;;30.90;3.95;;;15.80;99.90;;;;;;5046078;28;20017;-66
2021/11/27 11:22:13;;;;;;;29.52;4.80;;;15.80;99.90;;;;;;5061057;28;20096;-65
2021/11/27 11:24:42;;;;;;;23.27;4.07;;;15.90;99.90;;;;;;5065942;28;20037;-66
2021/11/27 11:27:11;;;;;;;29.77;4.93;;;15.90;99.90;;;;;;5055224;28;20057;-65
2021/11/27 11:29:45;;;;;;;28.95;4.93;;;15.90;99.90;;;;;;5056133;28;20034;-65
2021/11/27 11:32:16;;;;;;;26.23;4.10;;;16.00;99.90;;;;;;5055177;28;20084;-66
2021/11/27 11:34:43;;;;;;;27.45;4.50;;;16.00;99.90;;;;;;5048056;28;20079;-66
2021/11/27 11:37:10;;;;;;;25.40;4.70;;;16.00;99.90;;;;;;5056659;28;20036;-65
2021/11/27 11:39:39;;;;;;;21.40;4.25;;;16.10;99.90;;;;;;5057271;28;20116;-65
2021/11/27 11:42:08;;;;;;;25.88;4.63;;;16.10;99.90;;;;;;5053397;28;20097;-65
2021/11/27 11:44:42;;;;;;;30.38;4.88;;;16.20;99.90;;;;;;5049137;28;20044;-65
2021/11/27 11:47:10;;;;;;;32.80;4.85;;;16.20;99.90;;;;;;5044084;28;20042;-65
2021/11/27 11:49:39;;;;;;;21.17;4.10;;;16.20;99.90;;;;;;5050574;28;20042;-66
2021/11/27 11:52:26;;;;;;;22.67;4.63;;;16.20;99.90;;;;;;5053041;28;20029;-65
2021/11/27 11:55:07;;;;;;;31.83;4.85;;;16.10;99.90;;;;;;5053494;28;20976;-65
2021/11/27 11:57:48;;;;;;;23.20;4.55;;;16.00;99.90;;;;;;5059665;28;20626;-65
2021/11/27 12:00:27;;;;;;;34.55;5.80;;;16.00;99.90;;;;;;5055660;28;20025;-65
2021/11/27 12:03:11;;;;;;;25.98;4.47;;;16.00;99.90;;;;;;5062986;28;20028;-65
2021/11/27 12:05:58;;;;;;;25.90;5.13;;;16.00;99.90;;;;;;5060495;28;20048;-66
2021/11/27 12:08:51;;;;;;;23.98;4.00;;;16.00;99.90;;;;;;5062698;28;20040;-66
2021/11/27 12:11:46;;;;;;;25.15;4.28;;;16.00;99.90;;;;;;5056133;28;20637;-66
2021/11/27 12:14:24;;;;;;;27.65;4.88;;;16.00;99.90;;;;;;5059260;28;20372;-66
2021/11/27 12:17:18;;;;;;;31.17;4.15;;;16.00;99.90;;;;;;5074953;28;20025;-65
2021/11/27 12:19:46;;;;;;;33.50;5.25;;;16.10;99.90;;;;;;5070050;28;20112;-67
2021/11/27 12:22:36;;;;;;;30.33;4.93;;;16.20;99.90;;;;;;5064519;28;20016;-65
2021/11/27 12:25:13;;;;;;;28.20;5.15;;;16.20;99.90;;;;;;5050848;28;20025;-65
2021/11/27 12:28:07;;;;;;;22.90;3.60;;;16.20;99.90;;;;;;5055016;28;20051;-65
2021/11/27 12:30:48;;;;;;;23.63;4.63;;;16.20;99.90;;;;;;5063611;28;20045;-67
2021/11/27 12:33:44;;;;;;;25.20;4.63;;;16.20;99.90;;;;;;5059748;28;20038;-65
2021/11/27 12:36:26;;;;;;;20.75;4.15;;;16.20;99.90;;;;;;5044858;28;20033;-67
2021/11/27 12:39:06;;;;;;;23.23;3.95;;;16.20;99.90;;;;;;5055975;28;20036;-65
2021/11/27 12:41:41;;;;;;;22.67;5.32;;;16.20;99.90;;;;;;5061893;28;20009;-65
2021/11/27 12:44:21;;;;;;;18.35;4.25;;;16.20;99.90;;;;;;5056268;28;20508;-65
2021/11/27 12:46:58;;;;;;;24.00;3.17;;;16.20;99.90;;;;;;5063167;28;20049;-65
2021/11/27 12:49:34;;;;;;;18.73;3.33;;;16.10;99.90;;;;;;5057585;28;20051;-65